sensor_id;sensor_type;location;lat;lon;timestamp;pressure;altitude;pressure_sealevel;temperature;humidity
74327;BME280;62745;51.060;13.786;2024-03-08T00:01:41;100786.53;;;2.46;89.42
74327;BME280;62745;51.060;13.786;2024-03-08T00:04:08;100780.94;;;2.39;90.27
74327;BME280;62745;51.060;13.786;2024-03-08T00:06:34;100782.44;;;2.21;92.02
74327;BME280;62745;51.060;13.786;2024-03-08T00:09:01;100792.16;;;2.09;93.11
74327;BME280;62745;51.060;13.786;2024-03-08T00:11:27;100786.81;;;2.00;95.22
74327;BME280;62745;51.060;13.786;2024-03-08T00:13:54;100778.19;;;1.98;96.37
74327;BME280;62745;51.060;13.786;2024-03-08T00:16:21;100787.75;;;2.10;96.09
74327;BME280;62745;51.060;13.786;2024-03-08T00:18:49;100786.97;;;1.87;94.98
74327;BME280;62745;51.060;13.786;2024-03-08T00:21:16;100778.84;;;1.68;96.82
74327;BME280;62745;51.060;13.786;2024-03-08T00:23:42;100781.03;;;1.52;98.87
74327;BME280;62745;51.060;13.786;2024-03-08T00:26:09;100779.72;;;1.35;100.00
74327;BME280;62745;51.060;13.786;2024-03-08T00:28:35;100781.75;;;1.31;100.00
74327;BME280;62745;51.060;13.786;2024-03-08T00:31:02;100783.53;;;1.42;100.00
74327;BME280;62745;51.060;13.786;2024-03-08T00:33:29;100780.44;;;1.26;100.00
74327;BME280;62745;51.060;13.786;2024-03-08T00:35:55;100780.41;;;1.14;100.00
74327;BME280;62745;51.060;13.786;2024-03-08T00:38:22;100782.22;;;1.14;100.00
74327;BME280;62745;51.060;13.786;2024-03-08T00:40:48;100774.94;;;1.06;100.00
74327;BME280;62745;51.060;13.786;2024-03-08T00:43:15;100774.34;;;1.03;100.00
74327;BME280;62745;51.060;13.786;2024-03-08T00:45:42;100778.63;;;1.26;100.00
74327;BME280;62745;51.060;13.786;2024-03-08T00:48:09;100783.06;;;1.26;100.00
74327;BME280;62745;51.060;13.786;2024-03-08T00:50:37;100773.16;;;1.18;100.00
74327;BME280;62745;51.060;13.786;2024-03-08T00:53:03;100781.53;;;1.23;100.00
74327;BME280;62745;51.060;13.786;2024-03-08T00:55:31;100770.63;;;1.28;100.00
74327;BME280;62745;51.060;13.786;2024-03-08T00:57:57;100773.72;;;1.33;100.00
74327;BME280;62745;51.060;13.786;2024-03-08T01:00:24;100771.34;;;1.07;100.00
74327;BME280;62745;51.060;13.786;2024-03-08T01:02:51;100766.53;;;0.90;100.00
74327;BME280;62745;51.060;13.786;2024-03-08T01:05:17;100763.22;;;1.22;100.00
74327;BME280;62745;51.060;13.786;2024-03-08T01:07:44;100771.56;;;1.15;100.00
74327;BME280;62745;51.060;13.786;2024-03-08T01:10:12;100760.06;;;0.94;100.00
74327;BME280;62745;51.060;13.786;2024-03-08T01:12:39;100754.78;;;0.83;100.00
74327;BME280;62745;51.060;13.786;2024-03-08T01:15:06;100748.94;;;0.68;100.00
74327;BME280;62745;51.060;13.786;2024-03-08T01:17:33;100763.59;;;0.59;100.00
74327;BME280;62745;51.060;13.786;2024-03-08T01:20:00;100757.25;;;0.51;100.00
74327;BME280;62745;51.060;13.786;2024-03-08T01:22:26;100750.53;;;0.47;100.00
74327;BME280;62745;51.060;13.786;2024-03-08T01:24:54;100746.94;;;0.37;100.00
74327;BME280;62745;51.060;13.786;2024-03-08T01:27:21;100742.97;;;0.31;100.00
74327;BME280;62745;51.060;13.786;2024-03-08T01:29:47;100742.13;;;0.30;100.00
74327;BME280;62745;51.060;13.786;2024-03-08T01:32:14;100739.00;;;0.25;100.00
74327;BME280;62745;51.060;13.786;2024-03-08T01:34:41;100736.25;;;0.27;100.00
74327;BME280;62745;51.060;13.786;2024-03-08T01:37:08;100732.22;;;0.69;100.00
74327;BME280;62745;51.060;13.786;2024-03-08T01:39:36;100724.81;;;1.08;100.00
74327;BME280;62745;51.060;13.786;2024-03-08T01:42:02;100724.91;;;1.17;100.00
74327;BME280;62745;51.060;13.786;2024-03-08T01:44:29;100726.09;;;0.80;100.00
74327;BME280;62745;51.060;13.786;2024-03-08T01:46:56;100722.78;;;1.23;100.00
74327;BME280;62745;51.060;13.786;2024-03-08T01:49:23;100719.88;;;0.81;100.00
74327;BME280;62745;51.060;13.786;2024-03-08T01:51:51;100718.19;;;0.57;100.00
74327;BME280;62745;51.060;13.786;2024-03-08T01:54:19;100707.59;;;0.24;100.00
74327;BME280;62745;51.060;13.786;2024-03-08T01:56:47;100709.88;;;0.28;100.00
74327;BME280;62745;51.060;13.786;2024-03-08T01:59:14;100713.41;;;0.16;100.00
74327;BME280;62745;51.060;13.786;2024-03-08T02:01:41;100714.28;;;0.28;100.00
74327;BME280;62745;51.060;13.786;2024-03-08T02:04:08;100704.53;;;0.41;100.00
74327;BME280;62745;51.060;13.786;2024-03-08T02:06:35;100705.91;;;0.92;100.00
74327;BME280;62745;51.060;13.786;2024-03-08T02:09:01;100706.41;;;0.85;100.00
74327;BME280;62745;51.060;13.786;2024-03-08T02:11:34;100715.97;;;0.86;100.00
74327;BME280;62745;51.060;13.786;2024-03-08T02:14:00;100712.94;;;0.57;100.00
74327;BME280;62745;51.060;13.786;2024-03-08T02:16:27;100704.25;;;0.33;100.00
74327;BME280;62745;51.060;13.786;2024-03-08T02:18:54;100703.72;;;0.17;100.00
74327;BME280;62745;51.060;13.786;2024-03-08T02:21:21;100697.88;;;0.13;100.00
74327;BME280;62745;51.060;13.786;2024-03-08T02:23:47;100697.84;;;0.02;100.00
74327;BME280;62745;51.060;13.786;2024-03-08T02:26:14;100699.97;;;0.32;100.00
74327;BME280;62745;51.060;13.786;2024-03-08T02:28:40;100698.00;;;0.12;100.00
74327;BME280;62745;51.060;13.786;2024-03-08T02:31:09;100689.88;;;0.04;100.00
74327;BME280;62745;51.060;13.786;2024-03-08T02:33:35;100690.41;;;-0.04;100.00
74327;BME280;62745;51.060;13.786;2024-03-08T02:36:02;100687.53;;;-0.12;100.00
74327;BME280;62745;51.060;13.786;2024-03-08T02:38:29;100678.88;;;-0.25;100.00
74327;BME280;62745;51.060;13.786;2024-03-08T02:40:55;100682.75;;;-0.07;100.00
74327;BME280;62745;51.060;13.786;2024-03-08T02:43:22;100682.00;;;-0.20;100.00
74327;BME280;62745;51.060;13.786;2024-03-08T02:45:51;100690.47;;;-0.41;100.00
74327;BME280;62745;51.060;13.786;2024-03-08T02:48:19;100691.53;;;0.05;100.00
74327;BME280;62745;51.060;13.786;2024-03-08T02:50:46;100686.97;;;0.42;100.00
74327;BME280;62745;51.060;13.786;2024-03-08T02:53:13;100689.25;;;0.35;100.00
74327;BME280;62745;51.060;13.786;2024-03-08T02:55:41;100686.66;;;0.11;100.00
74327;BME280;62745;51.060;13.786;2024-03-08T02:58:09;100689.31;;;-0.13;100.00
74327;BME280;62745;51.060;13.786;2024-03-08T03:00:38;100678.88;;;-0.25;100.00
74327;BME280;62745;51.060;13.786;2024-03-08T03:03:07;100683.41;;;-0.27;100.00
74327;BME280;62745;51.060;13.786;2024-03-08T03:05:34;100680.47;;;-0.36;100.00
74327;BME280;62745;51.060;13.786;2024-03-08T03:08:01;100686.94;;;-0.52;100.00
74327;BME280;62745;51.060;13.786;2024-03-08T03:10:27;100680.88;;;-0.53;100.00
74327;BME280;62745;51.060;13.786;2024-03-08T03:12:54;100671.72;;;-0.47;100.00
74327;BME280;62745;51.060;13.786;2024-03-08T03:15:20;100672.28;;;-0.55;100.00
74327;BME280;62745;51.060;13.786;2024-03-08T03:17:48;100673.56;;;-0.61;100.00
74327;BME280;62745;51.060;13.786;2024-03-08T03:20:17;100675.13;;;-0.58;100.00
74327;BME280;62745;51.060;13.786;2024-03-08T03:22:52;100670.94;;;-0.37;100.00
74327;BME280;62745;51.060;13.786;2024-03-08T03:25:20;100667.44;;;0.11;100.00
74327;BME280;62745;51.060;13.786;2024-03-08T03:27:55;100674.94;;;0.04;100.00
74327;BME280;62745;51.060;13.786;2024-03-08T03:30:25;100668.94;;;-0.33;100.00
74327;BME280;62745;51.060;13.786;2024-03-08T03:32:53;100664.34;;;-0.42;100.00
74327;BME280;62745;51.060;13.786;2024-03-08T03:35:22;100668.19;;;-0.11;100.00
74327;BME280;62745;51.060;13.786;2024-03-08T03:37:49;100664.31;;;0.17;100.00
74327;BME280;62745;51.060;13.786;2024-03-08T03:40:28;100665.69;;;-0.13;100.00
74327;BME280;62745;51.060;13.786;2024-03-08T03:42:55;100672.00;;;-0.15;100.00
74327;BME280;62745;51.060;13.786;2024-03-08T03:45:23;100669.44;;;-0.28;100.00
74327;BME280;62745;51.060;13.786;2024-03-08T03:47:49;100663.06;;;-0.37;100.00
74327;BME280;62745;51.060;13.786;2024-03-08T03:50:17;100665.81;;;-0.03;100.00
74327;BME280;62745;51.060;13.786;2024-03-08T03:52:46;100663.06;;;-0.13;100.00
74327;BME280;62745;51.060;13.786;2024-03-08T03:55:14;100669.25;;;-0.38;100.00
74327;BME280;62745;51.060;13.786;2024-03-08T03:57:41;100655.09;;;-0.59;100.00
74327;BME280;62745;51.060;13.786;2024-03-08T04:00:07;100662.53;;;-0.18;100.00
74327;BME280;62745;51.060;13.786;2024-03-08T04:02:37;100655.91;;;-0.35;100.00
74327;BME280;62745;51.060;13.786;2024-03-08T04:05:09;100668.38;;;-0.25;100.00
74327;BME280;62745;51.060;13.786;2024-03-08T04:07:36;100645.31;;;-0.33;100.00
74327;BME280;62745;51.060;13.786;2024-03-08T04:10:05;100657.50;;;-0.32;100.00
74327;BME280;62745;51.060;13.786;2024-03-08T04:12:35;100650.00;;;-0.49;100.00
74327;BME280;62745;51.060;13.786;2024-03-08T04:15:02;100651.69;;;-0.48;100.00
74327;BME280;62745;51.060;13.786;2024-03-08T04:17:29;100650.06;;;-0.38;100.00
74327;BME280;62745;51.060;13.786;2024-03-08T04:19:55;100649.59;;;-0.56;100.00
74327;BME280;62745;51.060;13.786;2024-03-08T04:22:23;100647.25;;;-0.24;100.00
74327;BME280;62745;51.060;13.786;2024-03-08T04:24:49;100657.75;;;0.00;100.00
74327;BME280;62745;51.060;13.786;2024-03-08T04:27:17;100654.13;;;-0.34;100.00
74327;BME280;62745;51.060;13.786;2024-03-08T04:29:43;100647.69;;;-0.54;100.00
74327;BME280;62745;51.060;13.786;2024-03-08T04:32:10;100657.38;;;-0.54;100.00
74327;BME280;62745;51.060;13.786;2024-03-08T04:34:39;100642.41;;;-0.65;100.00
74327;BME280;62745;51.060;13.786;2024-03-08T04:37:11;100647.81;;;-0.79;100.00
74327;BME280;62745;51.060;13.786;2024-03-08T04:39:39;100642.97;;;-0.85;100.00
74327;BME280;62745;51.060;13.786;2024-03-08T04:42:07;100642.16;;;-0.49;100.00
74327;BME280;62745;51.060;13.786;2024-03-08T04:44:37;100639.94;;;-0.55;100.00
74327;BME280;62745;51.060;13.786;2024-03-08T04:47:06;100642.81;;;-0.58;100.00
74327;BME280;62745;51.060;13.786;2024-03-08T04:49:33;100650.47;;;-0.20;100.00
74327;BME280;62745;51.060;13.786;2024-03-08T04:52:03;100640.69;;;0.17;100.00
74327;BME280;62745;51.060;13.786;2024-03-08T04:54:30;100643.00;;;0.21;100.00
74327;BME280;62745;51.060;13.786;2024-03-08T04:56:57;100643.41;;;0.62;100.00
74327;BME280;62745;51.060;13.786;2024-03-08T04:59:24;100640.63;;;0.41;100.00
74327;BME280;62745;51.060;13.786;2024-03-08T05:01:50;100636.94;;;-0.03;100.00
74327;BME280;62745;51.060;13.786;2024-03-08T05:04:17;100629.19;;;-0.05;100.00
74327;BME280;62745;51.060;13.786;2024-03-08T05:06:44;100638.88;;;0.06;100.00
74327;BME280;62745;51.060;13.786;2024-03-08T05:09:10;100633.19;;;-0.23;100.00
74327;BME280;62745;51.060;13.786;2024-03-08T05:11:44;100633.88;;;-0.56;100.00
74327;BME280;62745;51.060;13.786;2024-03-08T05:14:11;100626.53;;;-0.87;100.00
74327;BME280;62745;51.060;13.786;2024-03-08T05:16:43;100631.03;;;-0.89;100.00
74327;BME280;62745;51.060;13.786;2024-03-08T05:19:18;100631.25;;;-0.80;100.00
74327;BME280;62745;51.060;13.786;2024-03-08T05:21:49;100631.25;;;-0.80;100.00
74327;BME280;62745;51.060;13.786;2024-03-08T05:24:17;100630.66;;;-0.96;100.00
74327;BME280;62745;51.060;13.786;2024-03-08T05:26:45;100635.31;;;-0.52;100.00
74327;BME280;62745;51.060;13.786;2024-03-08T05:29:13;100627.78;;;-0.33;100.00
74327;BME280;62745;51.060;13.786;2024-03-08T05:31:51;100624.28;;;-0.09;100.00
74327;BME280;62745;51.060;13.786;2024-03-08T05:34:19;100624.63;;;-0.14;100.00
74327;BME280;62745;51.060;13.786;2024-03-08T05:36:49;100620.94;;;-0.11;100.00
74327;BME280;62745;51.060;13.786;2024-03-08T05:39:18;100624.22;;;-0.20;100.00
74327;BME280;62745;51.060;13.786;2024-03-08T05:41:45;100629.22;;;-0.28;100.00
74327;BME280;62745;51.060;13.786;2024-03-08T05:44:12;100629.88;;;-0.38;100.00
74327;BME280;62745;51.060;13.786;2024-03-08T05:46:39;100624.19;;;-0.55;100.00
74327;BME280;62745;51.060;13.786;2024-03-08T05:49:06;100620.06;;;-0.71;100.00
74327;BME280;62745;51.060;13.786;2024-03-08T05:51:38;100627.78;;;-0.80;100.00
74327;BME280;62745;51.060;13.786;2024-03-08T05:54:10;100623.19;;;-0.89;100.00
74327;BME280;62745;51.060;13.786;2024-03-08T05:56:40;100617.00;;;-0.41;100.00
74327;BME280;62745;51.060;13.786;2024-03-08T05:59:11;100617.38;;;-0.34;100.00
74327;BME280;62745;51.060;13.786;2024-03-08T06:01:38;100620.09;;;-0.47;100.00
74327;BME280;62745;51.060;13.786;2024-03-08T06:04:07;100619.31;;;-0.60;100.00
74327;BME280;62745;51.060;13.786;2024-03-08T06:06:33;100626.84;;;-0.20;100.00
74327;BME280;62745;51.060;13.786;2024-03-08T06:09:00;100625.72;;;-0.40;100.00
74327;BME280;62745;51.060;13.786;2024-03-08T06:11:26;100623.97;;;-0.52;100.00
74327;BME280;62745;51.060;13.786;2024-03-08T06:13:55;100630.81;;;0.20;100.00
74327;BME280;62745;51.060;13.786;2024-03-08T06:16:27;100629.41;;;0.39;100.00
74327;BME280;62745;51.060;13.786;2024-03-08T06:18:56;100631.16;;;0.27;100.00
74327;BME280;62745;51.060;13.786;2024-03-08T06:21:24;100627.59;;;0.28;100.00
74327;BME280;62745;51.060;13.786;2024-03-08T06:23:53;100632.59;;;0.31;100.00
74327;BME280;62745;51.060;13.786;2024-03-08T06:26:21;100629.47;;;0.15;100.00
74327;BME280;62745;51.060;13.786;2024-03-08T06:28:48;100619.19;;;0.01;100.00
74327;BME280;62745;51.060;13.786;2024-03-08T06:31:15;100619.81;;;0.26;100.00
74327;BME280;62745;51.060;13.786;2024-03-08T06:33:41;100622.22;;;0.29;100.00
74327;BME280;62745;51.060;13.786;2024-03-08T06:36:09;100622.00;;;0.55;100.00
74327;BME280;62745;51.060;13.786;2024-03-08T06:38:35;100617.56;;;0.33;100.00
74327;BME280;62745;51.060;13.786;2024-03-08T06:41:02;100615.53;;;0.48;100.00
74327;BME280;62745;51.060;13.786;2024-03-08T06:43:30;100613.16;;;0.45;100.00
74327;BME280;62745;51.060;13.786;2024-03-08T06:46:00;100618.16;;;0.81;100.00
74327;BME280;62745;51.060;13.786;2024-03-08T06:48:26;100617.94;;;0.84;100.00
74327;BME280;62745;51.060;13.786;2024-03-08T06:50:53;100618.28;;;0.80;100.00
74327;BME280;62745;51.060;13.786;2024-03-08T06:53:20;100611.38;;;0.79;100.00
74327;BME280;62745;51.060;13.786;2024-03-08T06:55:50;100610.53;;;0.56;100.00
74327;BME280;62745;51.060;13.786;2024-03-08T06:58:16;100606.47;;;0.74;100.00
74327;BME280;62745;51.060;13.786;2024-03-08T07:00:43;100610.19;;;0.60;100.00
74327;BME280;62745;51.060;13.786;2024-03-08T07:03:10;100607.44;;;0.62;100.00
74327;BME280;62745;51.060;13.786;2024-03-08T07:05:38;100615.19;;;0.64;100.00
74327;BME280;62745;51.060;13.786;2024-03-08T07:08:06;100608.38;;;0.61;100.00
74327;BME280;62745;51.060;13.786;2024-03-08T07:10:33;100606.47;;;0.85;100.00
74327;BME280;62745;51.060;13.786;2024-03-08T07:13:01;100607.16;;;1.10;100.00
74327;BME280;62745;51.060;13.786;2024-03-08T07:15:30;100603.84;;;0.85;100.00
74327;BME280;62745;51.060;13.786;2024-03-08T07:17:57;100602.41;;;0.93;100.00
74327;BME280;62745;51.060;13.786;2024-03-08T07:20:23;100592.19;;;0.99;100.00
74327;BME280;62745;51.060;13.786;2024-03-08T07:22:50;100587.06;;;0.98;100.00
74327;BME280;62745;51.060;13.786;2024-03-08T07:25:17;100589.53;;;1.22;100.00
74327;BME280;62745;51.060;13.786;2024-03-08T07:27:51;100588.53;;;1.34;100.00
74327;BME280;62745;51.060;13.786;2024-03-08T07:30:22;100592.56;;;1.49;100.00
74327;BME280;62745;51.060;13.786;2024-03-08T07:33:09;100594.56;;;1.57;100.00
74327;BME280;62745;51.060;13.786;2024-03-08T07:35:40;100592.22;;;1.42;100.00
74327;BME280;62745;51.060;13.786;2024-03-08T07:38:08;100586.72;;;1.66;100.00
74327;BME280;62745;51.060;13.786;2024-03-08T07:40:37;100586.72;;;1.66;100.00
74327;BME280;62745;51.060;13.786;2024-03-08T07:43:11;100581.59;;;1.65;100.00
74327;BME280;62745;51.060;13.786;2024-03-08T07:45:38;100581.84;;;1.62;100.00
74327;BME280;62745;51.060;13.786;2024-03-08T07:48:05;100578.25;;;1.63;100.00
74327;BME280;62745;51.060;13.786;2024-03-08T07:50:37;100571.94;;;1.86;100.00
74327;BME280;62745;51.060;13.786;2024-03-08T07:53:06;100580.28;;;1.91;100.00
74327;BME280;62745;51.060;13.786;2024-03-08T07:55:34;100577.59;;;2.02;98.04
74327;BME280;62745;51.060;13.786;2024-03-08T07:58:02;100573.06;;;2.14;99.14
74327;BME280;62745;51.060;13.786;2024-03-08T08:00:30;100575.91;;;2.53;97.45
74327;BME280;62745;51.060;13.786;2024-03-08T08:02:57;100578.28;;;2.65;97.77
74327;BME280;62745;51.060;13.786;2024-03-08T08:05:24;100571.78;;;3.10;94.26
74327;BME280;62745;51.060;13.786;2024-03-08T08:07:51;100579.00;;;3.17;95.69
74327;BME280;62745;51.060;13.786;2024-03-08T08:10:19;100573.75;;;3.37;94.42
74327;BME280;62745;51.060;13.786;2024-03-08T08:12:49;100572.34;;;3.32;90.54
74327;BME280;62745;51.060;13.786;2024-03-08T08:15:15;100567.63;;;3.46;89.65
74327;BME280;62745;51.060;13.786;2024-03-08T08:17:42;100560.97;;;3.61;89.42
74327;BME280;62745;51.060;13.786;2024-03-08T08:20:10;100562.91;;;3.49;86.91
74327;BME280;62745;51.060;13.786;2024-03-08T08:22:38;100561.78;;;3.81;88.25
74327;BME280;62745;51.060;13.786;2024-03-08T08:25:07;100557.59;;;3.98;85.37
74327;BME280;62745;51.060;13.786;2024-03-08T08:27:33;100560.19;;;4.17;85.38
74327;BME280;62745;51.060;13.786;2024-03-08T08:30:00;100550.97;;;4.31;85.15
74327;BME280;62745;51.060;13.786;2024-03-08T08:32:27;100550.31;;;4.56;84.90
74327;BME280;62745;51.060;13.786;2024-03-08T08:34:53;100545.75;;;4.76;85.33
74327;BME280;62745;51.060;13.786;2024-03-08T08:37:20;100542.25;;;5.03;87.85
74327;BME280;62745;51.060;13.786;2024-03-08T08:39:49;100538.88;;;5.10;83.70
74327;BME280;62745;51.060;13.786;2024-03-08T08:42:17;100537.88;;;5.29;88.00
74327;BME280;62745;51.060;13.786;2024-03-08T08:44:44;100536.41;;;5.70;83.46
74327;BME280;62745;51.060;13.786;2024-03-08T08:47:10;100531.44;;;5.67;81.49
74327;BME280;62745;51.060;13.786;2024-03-08T08:49:41;100525.91;;;6.04;77.79
74327;BME280;62745;51.060;13.786;2024-03-08T08:52:09;100522.25;;;6.23;75.28
74327;BME280;62745;51.060;13.786;2024-03-08T08:54:43;100525.75;;;6.58;80.86
74327;BME280;62745;51.060;13.786;2024-03-08T08:57:14;100519.38;;;6.51;70.66
74327;BME280;62745;51.060;13.786;2024-03-08T08:59:41;100511.81;;;6.64;69.98
74327;BME280;62745;51.060;13.786;2024-03-08T09:02:07;100506.72;;;6.87;69.83
74327;BME280;62745;51.060;13.786;2024-03-08T09:04:37;100506.59;;;7.05;68.76
74327;BME280;62745;51.060;13.786;2024-03-08T09:07:04;100503.00;;;7.30;68.97
74327;BME280;62745;51.060;13.786;2024-03-08T09:09:32;100502.03;;;7.47;67.07
74327;BME280;62745;51.060;13.786;2024-03-08T09:11:59;100500.84;;;7.34;66.96
74327;BME280;62745;51.060;13.786;2024-03-08T09:14:26;100498.84;;;7.28;66.52
74327;BME280;62745;51.060;13.786;2024-03-08T09:16:52;100499.03;;;7.34;65.11
74327;BME280;62745;51.060;13.786;2024-03-08T09:19:19;100493.38;;;7.45;66.27
74327;BME280;62745;51.060;13.786;2024-03-08T09:21:46;100491.53;;;7.70;64.50
74327;BME280;62745;51.060;13.786;2024-03-08T09:24:13;100493.00;;;7.89;65.95
74327;BME280;62745;51.060;13.786;2024-03-08T09:26:39;100487.81;;;8.04;64.03
74327;BME280;62745;51.060;13.786;2024-03-08T09:29:08;100491.97;;;8.14;62.59
74327;BME280;62745;51.060;13.786;2024-03-08T09:31:37;100491.91;;;8.39;62.78
74327;BME280;62745;51.060;13.786;2024-03-08T09:34:04;100490.25;;;8.46;62.46
74327;BME280;62745;51.060;13.786;2024-03-08T09:36:30;100474.63;;;8.74;60.31
74327;BME280;62745;51.060;13.786;2024-03-08T09:38:59;100478.19;;;8.89;60.15
74327;BME280;62745;51.060;13.786;2024-03-08T09:41:27;100485.50;;;8.64;59.23
74327;BME280;62745;51.060;13.786;2024-03-08T09:43:53;100471.81;;;8.76;59.31
74327;BME280;62745;51.060;13.786;2024-03-08T09:46:22;100472.94;;;8.81;58.32
74327;BME280;62745;51.060;13.786;2024-03-08T09:48:49;100466.56;;;8.90;62.65
74327;BME280;62745;51.060;13.786;2024-03-08T09:51:15;100466.97;;;9.02;58.09
74327;BME280;62745;51.060;13.786;2024-03-08T09:53:42;100464.06;;;9.34;58.09
74327;BME280;62745;51.060;13.786;2024-03-08T09:56:08;100461.84;;;9.61;58.20
74327;BME280;62745;51.060;13.786;2024-03-08T09:58:35;100461.66;;;9.62;56.93
74327;BME280;62745;51.060;13.786;2024-03-08T10:01:03;100458.00;;;9.63;54.58
74327;BME280;62745;51.060;13.786;2024-03-08T10:03:31;100456.53;;;9.76;54.97
74327;BME280;62745;51.060;13.786;2024-03-08T10:05:59;100453.72;;;9.92;53.06
74327;BME280;62745;51.060;13.786;2024-03-08T10:08:27;100455.00;;;10.40;57.28
74327;BME280;62745;51.060;13.786;2024-03-08T10:10:56;100449.03;;;10.23;52.57
74327;BME280;62745;51.060;13.786;2024-03-08T10:13:26;100448.94;;;10.46;56.69
74327;BME280;62745;51.060;13.786;2024-03-08T10:15:56;100448.75;;;10.48;58.96
74327;BME280;62745;51.060;13.786;2024-03-08T10:18:23;100444.03;;;10.65;59.18
74327;BME280;62745;51.060;13.786;2024-03-08T10:21:02;100445.06;;;10.49;52.92
74327;BME280;62745;51.060;13.786;2024-03-08T10:23:31;100436.59;;;10.45;51.67
74327;BME280;62745;51.060;13.786;2024-03-08T10:25:58;100436.69;;;10.73;55.03
74327;BME280;62745;51.060;13.786;2024-03-08T10:28:24;100430.78;;;10.93;53.74
74327;BME280;62745;51.060;13.786;2024-03-08T10:30:51;100432.47;;;10.79;51.41
74327;BME280;62745;51.060;13.786;2024-03-08T10:33:18;100430.06;;;10.84;53.69
74327;BME280;62745;51.060;13.786;2024-03-08T10:35:44;100428.88;;;10.72;52.02
74327;BME280;62745;51.060;13.786;2024-03-08T10:38:13;100429.03;;;11.06;51.44
74327;BME280;62745;51.060;13.786;2024-03-08T10:40:43;100427.06;;;11.15;56.29
74327;BME280;62745;51.060;13.786;2024-03-08T10:43:21;100422.22;;;10.82;51.59
74327;BME280;62745;51.060;13.786;2024-03-08T10:46:16;100422.94;;;11.12;53.03
74327;BME280;62745;51.060;13.786;2024-03-08T10:48:49;100418.22;;;11.64;51.32
74327;BME280;62745;51.060;13.786;2024-03-08T10:51:16;100421.44;;;11.53;51.97
74327;BME280;62745;51.060;13.786;2024-03-08T10:53:44;100410.41;;;11.62;50.50
74327;BME280;62745;51.060;13.786;2024-03-08T10:56:12;100410.09;;;11.51;50.03
74327;BME280;62745;51.060;13.786;2024-03-08T10:58:42;100410.28;;;11.49;50.39
74327;BME280;62745;51.060;13.786;2024-03-08T11:01:10;100408.41;;;11.43;50.32
74327;BME280;62745;51.060;13.786;2024-03-08T11:06:08;100398.34;;;11.45;50.28
74327;BME280;62745;51.060;13.786;2024-03-08T11:08:36;100406.09;;;11.68;51.04
74327;BME280;62745;51.060;13.786;2024-03-08T11:11:03;100403.22;;;11.69;50.23
74327;BME280;62745;51.060;13.786;2024-03-08T11:13:39;100391.09;;;12.01;49.97
74327;BME280;62745;51.060;13.786;2024-03-08T11:16:08;100388.97;;;11.90;50.01
74327;BME280;62745;51.060;13.786;2024-03-08T11:18:36;100385.66;;;11.88;50.04
74327;BME280;62745;51.060;13.786;2024-03-08T11:21:04;100382.06;;;12.09;49.87
74327;BME280;62745;51.060;13.786;2024-03-08T11:23:38;100382.94;;;12.10;51.73
74327;BME280;62745;51.060;13.786;2024-03-08T11:26:21;100374.09;;;12.77;47.19
74327;BME280;62745;51.060;13.786;2024-03-08T11:28:50;100353.88;;;12.87;46.75
74327;BME280;62745;51.060;13.786;2024-03-08T11:31:23;100356.75;;;12.79;48.32
74327;BME280;62745;51.060;13.786;2024-03-08T11:33:51;100364.38;;;12.89;46.48
74327;BME280;62745;51.060;13.786;2024-03-08T11:36:21;100360.69;;;13.03;47.51
74327;BME280;62745;51.060;13.786;2024-03-08T11:38:49;100344.38;;;12.85;48.51
74327;BME280;62745;51.060;13.786;2024-03-08T11:41:20;100345.63;;;13.09;47.21
74327;BME280;62745;51.060;13.786;2024-03-08T11:43:48;100350.41;;;13.33;50.16
74327;BME280;62745;51.060;13.786;2024-03-08T11:46:16;100342.75;;;13.43;44.83
74327;BME280;62745;51.060;13.786;2024-03-08T11:48:47;100331.81;;;13.38;46.62
74327;BME280;62745;51.060;13.786;2024-03-08T11:51:15;100332.38;;;13.80;44.37
74327;BME280;62745;51.060;13.786;2024-03-08T11:53:42;100329.22;;;13.96;46.29
74327;BME280;62745;51.060;13.786;2024-03-08T11:56:14;100322.88;;;13.77;42.22
74327;BME280;62745;51.060;13.786;2024-03-08T11:58:41;100319.22;;;14.10;44.33
74327;BME280;62745;51.060;13.786;2024-03-08T12:01:09;100305.91;;;13.83;44.47
74327;BME280;62745;51.060;13.786;2024-03-08T12:03:39;100317.66;;;14.47;42.28
74327;BME280;62745;51.060;13.786;2024-03-08T12:06:09;100303.03;;;14.68;42.88
74327;BME280;62745;51.060;13.786;2024-03-08T12:08:36;100307.28;;;14.82;42.91
74327;BME280;62745;51.060;13.786;2024-03-08T12:11:07;100305.53;;;15.38;43.99
74327;BME280;62745;51.060;13.786;2024-03-08T12:13:34;100298.72;;;15.60;38.67
74327;BME280;62745;51.060;13.786;2024-03-08T12:16:04;100294.78;;;15.62;41.22
74327;BME280;62745;51.060;13.786;2024-03-08T12:18:37;100299.38;;;15.92;38.82
74327;BME280;62745;51.060;13.786;2024-03-08T12:21:07;100288.53;;;16.29;37.79
74327;BME280;62745;51.060;13.786;2024-03-08T12:23:35;100291.63;;;16.32;37.07
74327;BME280;62745;51.060;13.786;2024-03-08T12:28:42;100282.13;;;16.11;38.67
74327;BME280;62745;51.060;13.786;2024-03-08T12:31:15;100284.88;;;16.53;38.16
74327;BME280;62745;51.060;13.786;2024-03-08T12:33:54;100289.94;;;17.38;35.39
74327;BME280;62745;51.060;13.786;2024-03-08T12:36:23;100283.19;;;17.87;34.70
74327;BME280;62745;51.060;13.786;2024-03-08T12:38:50;100266.66;;;17.60;36.54
74327;BME280;62745;51.060;13.786;2024-03-08T12:41:17;100256.75;;;16.49;37.65
74327;BME280;62745;51.060;13.786;2024-03-08T12:43:45;100262.50;;;17.93;35.38
74327;BME280;62745;51.060;13.786;2024-03-08T12:46:16;100261.25;;;18.12;34.91
74327;BME280;62745;51.060;13.786;2024-03-08T12:48:43;100259.44;;;17.89;34.32
74327;BME280;62745;51.060;13.786;2024-03-08T12:51:14;100259.44;;;18.01;34.96